Terminal Aerodrome Forecast
Issued by NWS

Home | Current Version | Previous Version | Graphics & Text | Print | Product List | Glossary On
Versions: 1 2 3 4 5 6 7 8 9 10 11 12 13 14 15 16 17 18 19 20 21 22 23 24 25 26 27 28 29 30 31
221
FTUS43 KBIS 240353 AAA
TAFMOT
TAF AMD
KMOT 240353Z 2404/2424 09015KT P6SM OVC008
      TEMPO 2404/2408 SCT008 OVC012
     FM240800 06010KT 5SM -SN BR OVC008
     FM241200 03009KT 2SM -SN BR OVC008
     FM241600 01011KT P6SM -SN OVC008
     FM241800 01012KT P6SM OVC008=

USA.gov is the U.S. government's official web portal to all federal, state and local government web resources and services.